Time;durP1;ratioP1;P1;durP2;ratioP2;P2;SDS_P1;SDS_P2;PMS_P1;PMS_P2;Temp;Humidity;BMP_temperature;BMP_pressure;BME280_temperature;BME280_humidity;BME280_pressure;Samples;Min_cycle;Max_cycle;Signal;HPM_P1;HPM_P2
2021/12/23 00:00:09;;;;;;;25.25;17.45;;;;;;;-0.01;77.22;101516.56;5033229;28;20029;-71
2021/12/23 00:02:38;;;;;;;27.38;18.40;;;;;;;-0.04;76.71;101516.84;5031044;28;20029;-72
2021/12/23 00:05:05;;;;;;;29.73;18.10;;;;;;;-0.09;76.56;101511.94;5033273;28;20033;-69
2021/12/23 00:07:30;;;;;;;27.92;18.23;;;;;;;-0.07;77.14;101498.50;5033396;28;20123;-69
2021/12/23 00:10:05;;;;;;;31.15;18.80;;;;;;;-0.09;77.43;101489.78;5031907;28;20439;-70
2021/12/23 00:12:32;;;;;;;30.80;17.95;;;;;;;-0.10;77.14;101488.13;5033013;28;20033;-70
2021/12/23 00:14:58;;;;;;;27.75;17.80;;;;;;;-0.09;76.57;101487.97;5032931;28;20252;-69
2021/12/23 00:25:18;;;;;;;27.52;17.27;;;;;;;-0.11;76.53;101468.63;5032921;28;20511;-69
2021/12/23 00:27:44;;;;;;;25.23;16.73;;;;;;;-0.12;76.60;101453.69;5032924;28;20025;-72
2021/12/23 00:30:09;;;;;;;27.52;18.02;;;;;;;-0.09;76.32;101463.19;5032833;28;20095;-72
2021/12/23 00:32:35;;;;;;;28.98;18.25;;;;;;;-0.12;76.49;101448.34;5032472;28;20033;-70
2021/12/23 00:35:01;;;;;;;29.30;17.77;;;;;;;-0.14;76.63;101428.19;5032104;28;20393;-73
2021/12/23 00:37:26;;;;;;;29.20;17.83;;;;;;;-0.12;75.75;101426.22;5033075;28;20049;-70
2021/12/23 00:39:52;;;;;;;27.63;17.75;;;;;;;-0.11;76.15;101430.56;5031009;28;20472;-73
2021/12/23 00:42:18;;;;;;;29.05;18.02;;;;;;;-0.10;76.14;101425.09;5032979;28;20079;-73
2021/12/23 00:44:47;;;;;;;27.02;17.85;;;;;;;-0.12;76.16;101439.53;5032369;28;20488;-68
2021/12/23 00:47:14;;;;;;;27.48;18.00;;;;;;;-0.13;76.13;101435.19;5032456;28;20025;-69
2021/12/23 00:49:39;;;;;;;26.77;17.75;;;;;;;-0.09;75.28;101425.94;5017735;28;20033;-68
2021/12/23 00:52:06;;;;;;;25.50;18.05;;;;;;;-0.06;76.76;101420.31;5032408;28;21723;-72
2021/12/23 00:54:32;;;;;;;26.35;16.92;;;;;;;-0.09;75.45;101409.97;5032372;28;20041;-71
2021/12/23 00:56:57;;;;;;;28.42;17.85;;;;;;;-0.08;75.70;101416.97;5031293;28;20033;-73
2021/12/23 00:59:23;;;;;;;28.08;17.42;;;;;;;-0.07;76.47;101421.34;5032522;28;20037;-71
2021/12/23 01:01:48;;;;;;;27.42;17.40;;;;;;;-0.08;76.01;101425.78;5030015;28;20473;-72
2021/12/23 01:04:13;;;;;;;27.38;17.80;;;;;;;-0.10;75.90;101430.44;5030935;28;20038;-72
2021/12/23 01:06:39;;;;;;;29.45;18.65;;;;;;;-0.10;75.26;101446.38;5032801;28;20029;-73
2021/12/23 01:09:04;;;;;;;25.15;17.50;;;;;;;-0.08;75.79;101435.59;5031913;28;20493;-72
2021/12/23 01:11:29;;;;;;;28.05;17.90;;;;;;;-0.11;75.93;101434.06;5032599;28;20025;-72
2021/12/23 01:14:26;;;;;;;23.23;16.95;;;;;;;-0.08;75.78;101439.09;5031891;28;20056;-69
2021/12/23 01:19:25;;;;;;;25.23;16.23;;;;;;;-0.05;75.58;101432.66;5032011;28;20041;-72
2021/12/23 01:21:51;;;;;;;25.80;17.33;;;;;;;-0.05;75.71;101422.03;5031708;28;20048;-72
2021/12/23 01:24:17;;;;;;;27.45;17.98;;;;;;;-0.02;76.10;101419.06;5032096;28;20045;-70
2021/12/23 01:26:42;;;;;;;29.52;17.95;;;;;;;-0.07;76.14;101419.50;5032224;28;20034;-70
2021/12/23 01:29:08;;;;;;;27.40;17.92;;;;;;;-0.06;76.28;101415.00;5032276;28;20033;-68
2021/12/23 01:31:36;;;;;;;25.58;16.88;;;;;;;-0.08;75.93;101404.50;5031978;28;20040;-72
2021/12/23 01:34:01;;;;;;;25.65;17.67;;;;;;;-0.05;76.31;101403.41;5034997;28;20112;-72
2021/12/23 01:36:27;;;;;;;28.35;17.80;;;;;;;-0.09;74.96;101404.66;5034070;28;20128;-70
2021/12/23 01:38:53;;;;;;;29.10;18.55;;;;;;;-0.13;76.04;101389.97;5035890;28;20061;-73
2021/12/23 01:41:18;;;;;;;25.98;17.85;;;;;;;-0.09;75.37;101394.00;5035814;28;20026;-71
2021/12/23 01:43:44;;;;;;;28.65;18.35;;;;;;;-0.09;75.88;101383.38;5035954;28;20044;-69
2021/12/23 01:46:09;;;;;;;27.27;17.83;;;;;;;-0.09;75.92;101392.22;5036272;28;20461;-71
2021/12/23 01:48:34;;;;;;;25.10;17.75;;;;;;;-0.07;76.52;101387.56;5035448;28;20542;-71
2021/12/23 01:51:00;;;;;;;25.25;17.67;;;;;;;-0.08;76.12;101379.72;5035912;28;20033;-72
2021/12/23 01:53:26;;;;;;;28.13;19.17;;;;;;;-0.08;75.98;101380.56;5035748;28;20033;-70
2021/12/23 01:55:51;;;;;;;26.67;17.20;;;;;;;-0.10;75.14;101377.22;5034378;28;20037;-71
2021/12/23 01:58:18;;;;;;;30.02;17.70;;;;;;;-0.10;75.37;101363.09;5034540;28;20461;-70
2021/12/23 02:00:47;;;;;;;29.23;17.83;;;;;;;-0.07;76.32;101366.28;5033277;28;20017;-72
2021/12/23 02:03:12;;;;;;;26.55;17.77;;;;;;;-0.06;75.95;101372.44;5035855;28;20029;-70
2021/12/23 02:05:39;;;;;;;31.38;18.33;;;;;;;-0.07;75.30;101362.81;5035713;28;20483;-73
2021/12/23 02:08:04;;;;;;;27.98;17.88;;;;;;;-0.10;75.44;101355.94;5033884;28;20438;-72
2021/12/23 02:10:30;;;;;;;27.73;17.90;;;;;;;-0.11;75.40;101353.41;5035549;28;20029;-71
2021/12/23 02:12:56;;;;;;;27.67;17.35;;;;;;;-0.15;75.19;101347.56;5035332;28;20044;-74
2021/12/23 02:15:21;;;;;;;26.77;18.23;;;;;;;-0.15;75.88;101346.69;5035253;28;20030;-72
2021/12/23 02:17:48;;;;;;;26.98;18.20;;;;;;;-0.12;76.12;101351.72;5035733;28;20472;-70
2021/12/23 02:20:20;;;;;;;25.65;17.95;;;;;;;-0.16;75.89;101345.88;5035035;28;20060;-73
2021/12/23 02:22:45;;;;;;;30.98;18.60;;;;;;;-0.14;75.43;101343.06;5035331;28;20037;-73
2021/12/23 02:25:12;;;;;;;27.95;17.75;;;;;;;-0.15;75.84;101341.38;5034601;28;20496;-73
2021/12/23 02:27:38;;;;;;;27.10;17.90;;;;;;;-0.16;76.49;101348.53;5033660;28;20060;-71
2021/12/23 02:30:07;;;;;;;31.35;18.27;;;;;;;-0.16;76.09;101345.88;5035053;28;20037;-71
2021/12/23 02:32:35;;;;;;;27.80;18.13;;;;;;;-0.23;75.18;101347.41;5035027;28;20484;-71
2021/12/23 02:35:00;;;;;;;28.23;19.10;;;;;;;-0.20;75.69;101358.63;5034871;28;20069;-72
2021/12/23 02:37:26;;;;;;;26.40;17.95;;;;;;;-0.21;75.56;101353.44;5034672;28;20073;-71
2021/12/23 02:39:51;;;;;;;27.60;18.45;;;;;;;-0.23;75.61;101356.25;5034494;28;20425;-70
2021/12/23 02:42:17;;;;;;;29.92;19.30;;;;;;;-0.24;76.16;101357.22;5035188;28;20033;-70
2021/12/23 02:44:42;;;;;;;27.55;19.05;;;;;;;-0.23;75.18;101360.72;5034383;28;20059;-68
2021/12/23 02:47:07;;;;;;;29.25;18.52;;;;;;;-0.25;75.34;101346.72;5035014;28;20396;-73
2021/12/23 02:49:33;;;;;;;28.52;17.92;;;;;;;-0.25;75.41;101357.38;5035075;28;20033;-70
2021/12/23 02:51:59;;;;;;;28.02;18.90;;;;;;;-0.33;75.52;101346.56;5034147;28;20033;-71
2021/12/23 02:54:24;;;;;;;27.45;18.17;;;;;;;-0.30;76.04;101339.16;5034800;28;20045;-70
2021/12/23 02:56:50;;;;;;;27.98;18.50;;;;;;;-0.32;76.16;101327.81;5034671;28;20124;-70
2021/12/23 02:59:15;;;;;;;27.75;18.98;;;;;;;-0.34;76.36;101321.81;5034143;28;20105;-73
2021/12/23 03:01:40;;;;;;;30.33;18.92;;;;;;;-0.38;75.56;101312.44;5032585;28;20412;-71
2021/12/23 03:04:06;;;;;;;30.17;18.80;;;;;;;-0.37;75.39;101322.09;5034547;28;20025;-72
2021/12/23 03:06:31;;;;;;;26.60;18.65;;;;;;;-0.36;75.42;101323.78;5034269;28;20033;-69
2021/12/23 03:08:59;;;;;;;28.48;18.73;;;;;;;-0.41;75.87;101310.91;5033846;28;20122;-68
2021/12/23 03:11:27;;;;;;;26.70;18.67;;;;;;;-0.39;76.39;101313.44;5033585;28;20037;-71
2021/12/23 03:13:53;;;;;;;33.70;19.63;;;;;;;-0.43;75.95;101312.84;5040900;28;20033;-67
2021/12/23 03:16:22;;;;;;;30.98;18.50;;;;;;;-0.46;75.77;101307.81;5045937;28;20040;-68
2021/12/23 03:18:47;;;;;;;30.10;18.55;;;;;;;-0.49;76.35;101297.47;5044808;28;20095;-73
2021/12/23 03:21:13;;;;;;;29.58;18.63;;;;;;;-0.51;76.79;101298.59;5034341;28;20045;-69
2021/12/23 03:23:39;;;;;;;28.65;19.30;;;;;;;-0.55;76.13;101288.22;5034096;28;20032;-69
2021/12/23 03:26:04;;;;;;;28.15;19.13;;;;;;;-0.58;76.92;101293.84;5033946;28;20045;-72
2021/12/23 03:28:30;;;;;;;30.38;18.95;;;;;;;-0.58;76.85;101288.53;5034106;28;20033;-69
2021/12/23 03:30:55;;;;;;;28.42;19.23;;;;;;;-0.57;76.51;101278.75;5033741;28;20057;-74
2021/12/23 03:33:21;;;;;;;29.25;19.02;;;;;;;-0.61;76.00;101264.88;5033640;28;20408;-72
2021/12/23 03:35:47;;;;;;;28.67;19.42;;;;;;;-0.60;76.38;101252.44;5033797;28;20388;-70
2021/12/23 03:38:14;;;;;;;27.85;19.45;;;;;;;-0.62;76.13;101262.38;5033462;28;20132;-69
2021/12/23 03:40:40;;;;;;;29.55;18.95;;;;;;;-0.66;76.81;101269.78;5028607;28;20393;-70
2021/12/23 03:43:05;;;;;;;27.98;19.85;;;;;;;-0.65;76.93;101255.53;5033418;28;20034;-69
2021/12/23 03:45:31;;;;;;;28.58;19.85;;;;;;;-0.64;76.68;101248.38;5033781;28;20044;-68
2021/12/23 03:47:56;;;;;;;29.63;19.60;;;;;;;-0.61;77.06;101240.97;5032302;28;20421;-68
2021/12/23 03:50:24;;;;;;;28.23;19.65;;;;;;;-0.64;77.12;101238.59;5033767;28;20056;-70
2021/12/23 03:52:50;;;;;;;31.60;20.92;;;;;;;-0.65;77.07;101236.94;5033682;28;20052;-70
2021/12/23 03:55:16;;;;;;;33.38;21.88;;;;;;;-0.65;77.05;101228.97;5031011;28;20037;-70
2021/12/23 03:57:42;;;;;;;32.88;21.42;;;;;;;-0.63;77.52;101203.06;5033361;28;20551;-69
2021/12/23 04:00:11;;;;;;;29.92;20.85;;;;;;;-0.59;76.95;101206.25;5033086;28;20049;-70
2021/12/23 04:02:37;;;;;;;32.03;20.85;;;;;;;-0.60;77.30;101200.13;5030804;28;20040;-69
2021/12/23 04:05:04;;;;;;;30.50;20.73;;;;;;;-0.59;77.59;101207.13;5032904;28;20037;-69
2021/12/23 04:07:29;;;;;;;30.05;20.60;;;;;;;-0.63;76.73;101205.72;5033061;28;20034;-69
2021/12/23 04:09:54;;;;;;;31.20;20.10;;;;;;;-0.63;77.31;101215.53;5032623;28;20033;-69
2021/12/23 04:12:21;;;;;;;36.97;23.15;;;;;;;-0.59;76.80;101224.88;5031876;28;20043;-69
2021/12/23 04:14:47;;;;;;;33.58;21.48;;;;;;;-0.58;77.45;101211.44;5033182;28;20030;-68
2021/12/23 04:17:12;;;;;;;34.40;22.67;;;;;;;-0.60;77.34;101194.78;5032618;28;20048;-68
2021/12/23 04:19:37;;;;;;;33.50;22.42;;;;;;;-0.58;77.21;101190.16;5033390;28;20040;-69
2021/12/23 04:22:03;;;;;;;34.97;22.02;;;;;;;-0.57;77.83;101189.19;5033014;28;20083;-70
2021/12/23 04:24:28;;;;;;;34.70;22.40;;;;;;;-0.58;77.01;101192.81;5032803;28;20125;-69
2021/12/23 04:26:53;;;;;;;39.22;22.85;;;;;;;-0.55;77.13;101205.81;5032855;28;20457;-68
2021/12/23 04:29:19;;;;;;;34.33;22.25;;;;;;;-0.52;77.57;101201.22;5027814;28;20432;-69
2021/12/23 04:31:44;;;;;;;37.63;23.13;;;;;;;-0.52;77.06;101211.84;5014514;28;20367;-70
2021/12/23 04:34:10;;;;;;;36.33;23.75;;;;;;;-0.50;77.56;101209.88;5023683;28;20540;-69
2021/12/23 04:36:35;;;;;;;34.38;22.45;;;;;;;-0.50;77.46;101199.25;5013161;28;20042;-69
2021/12/23 04:39:01;;;;;;;35.75;23.27;;;;;;;-0.52;77.96;101177.31;5013160;28;20037;-68
2021/12/23 04:41:27;;;;;;;35.17;23.67;;;;;;;-0.53;77.35;101173.78;5013388;28;20029;-70
2021/12/23 04:43:54;;;;;;;35.22;22.50;;;;;;;-0.56;76.69;101190.88;5014499;28;20470;-68
2021/12/23 04:46:19;;;;;;;36.42;25.00;;;;;;;-0.55;77.67;101173.94;5032666;28;20041;-69
2021/12/23 04:48:45;;;;;;;37.25;24.35;;;;;;;-0.58;77.40;101152.94;5032546;28;20033;-70
2021/12/23 04:51:12;;;;;;;37.30;24.25;;;;;;;-0.56;76.89;101164.28;5032598;28;20048;-69
2021/12/23 04:53:37;;;;;;;36.25;23.75;;;;;;;-0.56;77.23;101164.28;5032529;28;20033;-70
2021/12/23 04:56:03;;;;;;;36.53;24.27;;;;;;;-0.53;77.57;101168.47;5032334;28;20040;-70
2021/12/23 04:58:29;;;;;;;34.50;23.75;;;;;;;-0.50;77.58;101154.88;5032449;28;20032;-68
2021/12/23 05:00:54;;;;;;;35.72;24.88;;;;;;;-0.48;77.63;101147.63;5030064;28;20116;-68
2021/12/23 05:03:22;;;;;;;36.00;24.50;;;;;;;-0.51;77.16;101144.41;5032297;28;20060;-68
2021/12/23 05:05:48;;;;;;;37.03;24.67;;;;;;;-0.50;77.18;101138.09;5032392;28;20037;-69
2021/12/23 05:08:14;;;;;;;35.55;23.30;;;;;;;-0.52;77.71;101137.44;5032162;28;20033;-70
2021/12/23 05:10:40;;;;;;;37.10;25.25;;;;;;;-0.54;76.87;101127.75;5032339;28;20029;-69
2021/12/23 05:13:06;;;;;;;39.15;24.95;;;;;;;-0.51;77.73;101133.75;5030438;28;20037;-69
2021/12/23 05:15:32;;;;;;;39.13;26.23;;;;;;;-0.52;76.86;101132.09;5032283;28;20037;-69
2021/12/23 05:17:58;;;;;;;38.92;25.67;;;;;;;-0.49;77.39;101132.63;5032183;28;20029;-69
2021/12/23 05:20:23;;;;;;;39.95;25.52;;;;;;;-0.52;77.40;101134.75;5032514;28;20037;-69
2021/12/23 05:22:49;;;;;;;40.50;26.45;;;;;;;-0.46;77.03;101137.66;5032443;28;20400;-69
2021/12/23 05:25:16;;;;;;;44.15;27.85;;;;;;;-0.48;77.04;101129.00;5032050;28;20037;-69
2021/12/23 05:27:41;;;;;;;40.65;27.27;;;;;;;-0.50;77.11;101140.75;5032365;28;20511;-69
2021/12/23 05:30:10;;;;;;;40.15;26.90;;;;;;;-0.50;77.34;101132.78;5031797;28;20112;-69
2021/12/23 05:32:35;;;;;;;41.58;27.45;;;;;;;-0.51;77.31;101125.78;5030643;28;20029;-68
2021/12/23 05:35:00;;;;;;;40.50;27.23;;;;;;;-0.47;77.36;101121.84;5031952;28;20457;-69
2021/12/23 05:37:26;;;;;;;40.97;26.98;;;;;;;-0.45;77.41;101127.88;5031441;28;20051;-70
2021/12/23 05:39:51;;;;;;;40.28;27.30;;;;;;;-0.43;77.21;101125.91;5032074;28;20044;-70
2021/12/23 05:42:16;;;;;;;42.45;27.20;;;;;;;-0.38;77.84;101116.50;5031292;28;20041;-69
2021/12/23 05:44:42;;;;;;;43.42;28.67;;;;;;;-0.38;77.02;101113.00;5032100;28;20543;-69
2021/12/23 05:47:07;;;;;;;44.25;28.95;;;;;;;-0.36;77.68;101111.06;5031577;28;20479;-68
2021/12/23 05:49:33;;;;;;;50.45;29.05;;;;;;;-0.36;77.06;101098.59;5031945;28;20037;-69
2021/12/23 05:51:58;;;;;;;43.15;29.55;;;;;;;-0.36;77.63;101095.09;5032068;28;20029;-68
2021/12/23 05:54:23;;;;;;;45.25;29.02;;;;;;;-0.35;77.54;101102.06;5031600;28;20103;-69
2021/12/23 05:56:49;;;;;;;42.10;28.70;;;;;;;-0.33;77.25;101100.13;5032290;28;20034;-69
2021/12/23 05:59:15;;;;;;;43.53;28.60;;;;;;;-0.30;77.14;101105.16;5031334;28;20037;-68
2021/12/23 06:01:40;;;;;;;44.78;29.58;;;;;;;-0.24;78.25;101109.00;5029739;28;20124;-69
2021/12/23 06:04:06;;;;;;;44.92;29.55;;;;;;;-0.24;77.16;101103.69;5031419;28;20037;-69
2021/12/23 06:06:31;;;;;;;42.33;28.42;;;;;;;-0.23;77.63;101100.06;5030685;28;20025;-69
2021/12/23 06:08:56;;;;;;;44.03;29.05;;;;;;;-0.23;76.99;101110.69;5031858;28;20515;-69
2021/12/23 06:11:22;;;;;;;42.13;28.60;;;;;;;-0.21;76.66;101117.56;5031491;28;20033;-69
2021/12/23 06:13:47;;;;;;;43.47;29.20;;;;;;;-0.20;76.81;101116.56;5030404;28;20477;-69
2021/12/23 06:16:13;;;;;;;46.42;28.30;;;;;;;-0.21;77.16;101100.75;5031520;28;20117;-69
2021/12/23 06:18:38;;;;;;;45.00;28.63;;;;;;;-0.20;76.75;101102.41;5032322;28;20420;-69
2021/12/23 06:21:04;;;;;;;42.65;28.15;;;;;;;-0.21;76.44;101090.94;5035002;28;20030;-69
2021/12/23 06:23:30;;;;;;;48.60;28.52;;;;;;;-0.26;76.45;101085.22;5033877;28;20037;-69
2021/12/23 06:25:56;;;;;;;44.35;28.40;;;;;;;-0.26;76.96;101084.41;5035220;28;20032;-69
2021/12/23 06:28:21;;;;;;;42.88;28.55;;;;;;;-0.25;77.49;101084.25;5034736;28;20436;-69
2021/12/23 06:30:46;;;;;;;45.50;28.45;;;;;;;-0.23;77.89;101087.63;5034805;28;20465;-69
2021/12/23 06:33:12;;;;;;;44.45;28.08;;;;;;;-0.30;78.07;101077.69;5034577;28;20095;-68
2021/12/23 06:35:38;;;;;;;44.00;28.60;;;;;;;-0.24;77.50;101064.66;5035116;28;20044;-70
2021/12/23 06:38:09;;;;;;;42.63;27.30;;;;;;;-0.29;77.89;101058.94;5034352;28;20058;-69
2021/12/23 06:40:35;;;;;;;47.85;28.98;;;;;;;-0.21;77.20;101072.34;5035002;28;20044;-69
2021/12/23 06:43:01;;;;;;;41.78;28.30;;;;;;;-0.20;77.76;101066.03;5034465;28;20063;-69
2021/12/23 06:45:26;;;;;;;42.60;27.60;;;;;;;-0.18;77.67;101057.91;5034741;28;20038;-69
2021/12/23 06:47:51;;;;;;;43.63;27.65;;;;;;;-0.22;76.84;101054.69;5034971;28;20032;-69
2021/12/23 06:50:18;;;;;;;44.47;27.63;;;;;;;-0.21;77.43;101056.38;5034393;28;20029;-70
2021/12/23 06:52:44;;;;;;;44.45;27.98;;;;;;;-0.23;77.37;101063.69;5034463;28;20116;-68
2021/12/23 06:55:11;;;;;;;41.88;27.27;;;;;;;-0.21;77.99;101056.38;5034340;28;20033;-69
2021/12/23 06:57:38;;;;;;;45.10;27.67;;;;;;;-0.20;77.92;101057.19;5033091;28;20116;-69
2021/12/23 07:00:09;;;;;;;44.85;27.80;;;;;;;-0.19;77.38;101059.72;5034666;28;20354;-69
2021/12/23 07:02:38;;;;;;;40.33;26.15;;;;;;;-0.23;77.90;101053.03;5032318;28;20033;-69
2021/12/23 07:05:04;;;;;;;41.45;27.05;;;;;;;-0.17;77.90;101051.59;5033291;28;20030;-70
2021/12/23 07:07:39;;;;;;;42.53;27.23;;;;;;;-0.19;77.84;101051.72;5032951;28;20037;-70
2021/12/23 07:10:05;;;;;;;43.10;26.77;;;;;;;-0.19;77.41;101058.88;5034262;28;20468;-70
2021/12/23 07:12:31;;;;;;;44.45;27.48;;;;;;;-0.15;77.17;101064.72;5033771;28;20178;-72
2021/12/23 07:14:56;;;;;;;46.10;27.45;;;;;;;-0.13;77.49;101055.63;5033350;28;20056;-75
2021/12/23 07:17:21;;;;;;;44.22;26.73;;;;;;;-0.14;77.68;101045.13;5034482;28;20056;-72
2021/12/23 07:19:47;;;;;;;43.92;26.90;;;;;;;-0.10;78.28;101042.03;5034329;28;20366;-75
2021/12/23 07:22:12;;;;;;;45.50;26.73;;;;;;;-0.11;77.62;101044.84;5028514;28;20172;-70
2021/12/23 07:24:39;;;;;;;42.80;26.58;;;;;;;-0.07;78.03;101052.38;5034087;28;20073;-71
2021/12/23 07:27:05;;;;;;;43.97;26.85;;;;;;;-0.06;77.85;101047.88;5033764;28;20029;-76
2021/12/23 07:29:30;;;;;;;41.30;26.33;;;;;;;-0.05;77.56;101053.03;5031812;28;20040;-70
2021/12/23 07:31:55;;;;;;;44.53;26.85;;;;;;;-0.08;77.78;101041.88;5026699;28;20103;-72
2021/12/23 07:34:21;;;;;;;40.80;25.20;;;;;;;-0.07;77.99;101044.38;5033848;28;20381;-70
2021/12/23 07:36:46;;;;;;;45.63;27.45;;;;;;;-0.06;77.78;101059.38;5033903;28;20049;-71
2021/12/23 07:39:11;;;;;;;42.63;26.98;;;;;;;-0.03;77.92;101056.41;5034015;28;20108;-71
2021/12/23 07:41:37;;;;;;;42.45;26.83;;;;;;;-0.02;77.68;101052.72;5032760;28;20484;-75
2021/12/23 07:44:05;;;;;;;41.47;26.67;;;;;;;0.05;77.79;101060.97;5032735;28;20075;-75
2021/12/23 07:46:36;;;;;;;44.13;26.33;;;;;;;0.06;78.29;101061.78;5033622;28;20029;-72
2021/12/23 07:49:02;;;;;;;45.75;27.30;;;;;;;0.05;77.26;101066.28;5033720;28;20044;-72
2021/12/23 07:51:28;;;;;;;44.63;26.60;;;;;;;0.06;77.78;101056.47;5033725;28;20029;-70
2021/12/23 07:53:54;;;;;;;43.90;26.83;;;;;;;0.07;77.58;101069.63;5032607;28;20040;-74
2021/12/23 07:56:23;;;;;;;41.28;26.15;;;;;;;0.05;77.28;101055.66;5033775;28;20107;-73
2021/12/23 07:58:48;;;;;;;44.17;27.13;;;;;;;0.09;78.28;101049.03;5034066;28;20124;-72
2021/12/23 08:01:14;;;;;;;42.35;26.70;;;;;;;0.12;77.68;101045.22;5031282;28;20037;-71
2021/12/23 08:03:39;;;;;;;43.67;27.08;;;;;;;0.14;77.81;101044.09;5033871;28;20082;-72
2021/12/23 08:06:04;;;;;;;42.50;26.60;;;;;;;0.16;78.06;101047.44;5035377;28;20033;-71
2021/12/23 08:08:30;;;;;;;44.05;26.55;;;;;;;0.14;77.72;101041.44;5037879;28;20037;-70
2021/12/23 08:10:56;;;;;;;43.15;26.35;;;;;;;0.14;77.49;101035.28;5043364;28;20057;-70
2021/12/23 08:13:21;;;;;;;41.60;25.70;;;;;;;0.13;77.83;101042.41;5042289;28;20108;-72
2021/12/23 08:15:46;;;;;;;42.03;26.58;;;;;;;0.14;77.48;101054.75;5037404;28;20041;-75
2021/12/23 08:18:12;;;;;;;44.25;26.23;;;;;;;0.15;78.04;101045.78;5031932;28;20036;-72
2021/12/23 08:20:37;;;;;;;44.22;26.23;;;;;;;0.18;78.16;101049.94;5033193;28;20031;-74
2021/12/23 08:23:03;;;;;;;44.05;26.98;;;;;;;0.19;77.66;101045.47;5032053;28;20480;-75
2021/12/23 08:25:28;;;;;;;43.08;25.42;;;;;;;0.23;77.89;101041.50;5033442;28;20044;-73
2021/12/23 08:27:54;;;;;;;41.53;26.95;;;;;;;0.23;77.71;101031.69;5033081;28;20026;-73
2021/12/23 08:30:20;;;;;;;42.92;27.30;;;;;;;0.25;77.50;101024.38;5033123;28;20038;-74
2021/12/23 08:32:47;;;;;;;44.40;26.77;;;;;;;0.24;78.05;101027.22;5033095;28;20040;-71
2021/12/23 08:35:13;;;;;;;43.58;26.45;;;;;;;0.31;78.40;101022.94;5033000;28;20029;-75
2021/12/23 08:37:40;;;;;;;45.72;26.85;;;;;;;0.32;77.93;101024.63;5031489;28;20095;-72
2021/12/23 08:40:08;;;;;;;42.95;26.63;;;;;;;0.36;78.54;101025.97;5031161;28;20025;-73
2021/12/23 08:42:33;;;;;;;42.63;26.60;;;;;;;0.36;78.15;101010.00;5030848;28;20021;-74
2021/12/23 08:44:59;;;;;;;42.30;26.05;;;;;;;0.39;77.62;101001.69;5031648;28;20026;-71
2021/12/23 08:47:24;;;;;;;46.25;27.13;;;;;;;0.42;78.17;100997.91;5032825;28;20021;-72
2021/12/23 08:49:49;;;;;;;45.00;26.98;;;;;;;0.44;78.17;101007.41;5031544;28;20033;-71
2021/12/23 08:52:15;;;;;;;41.13;25.33;;;;;;;0.43;78.49;100999.59;5032418;28;20033;-75
2021/12/23 08:54:42;;;;;;;41.97;25.80;;;;;;;0.48;77.80;100998.13;5031237;28;20041;-73
2021/12/23 08:57:07;;;;;;;45.90;27.35;;;;;;;0.51;78.22;100988.97;5032739;28;20026;-73
2021/12/23 08:59:33;;;;;;;41.53;26.65;;;;;;;0.52;77.70;100986.16;5032413;28;20080;-71
2021/12/23 09:01:59;;;;;;;43.35;26.33;;;;;;;0.53;77.81;100987.84;5030041;28;20451;-71
2021/12/23 09:04:24;;;;;;;45.05;27.30;;;;;;;0.57;78.18;100996.34;5032513;28;20033;-70
2021/12/23 09:06:49;;;;;;;41.17;26.27;;;;;;;0.56;78.31;100985.84;5032504;28;20033;-74
2021/12/23 09:09:15;;;;;;;42.40;26.73;;;;;;;0.63;78.39;100984.25;5032122;28;20025;-74
2021/12/23 09:11:40;;;;;;;42.50;25.88;;;;;;;0.64;77.97;100981.41;5032345;28;20467;-71
2021/12/23 09:14:06;;;;;;;43.33;26.02;;;;;;;0.68;78.20;100987.25;5032481;28;20075;-74
2021/12/23 09:16:31;;;;;;;41.08;26.23;;;;;;;0.64;77.39;100975.28;5031026;28;20480;-74
2021/12/23 09:18:56;;;;;;;43.85;25.83;;;;;;;0.68;77.80;100981.94;5032601;28;20389;-72
2021/12/23 09:21:22;;;;;;;44.88;26.58;;;;;;;0.67;77.93;100974.94;5032035;28;20094;-72
2021/12/23 09:23:47;;;;;;;43.65;26.35;;;;;;;0.72;77.58;100980.63;5031151;28;20385;-73
2021/12/23 09:26:12;;;;;;;42.92;26.42;;;;;;;0.73;77.92;100974.31;5031948;28;20060;-70
2021/12/23 09:28:54;;;;;;;44.95;25.27;;;;;;;0.75;78.23;100977.66;5032585;28;20040;-72
2021/12/23 09:34:05;;;;;;;42.35;25.08;;;;;;;0.79;77.61;100972.88;5032125;28;20280;-72
2021/12/23 09:36:31;;;;;;;40.72;25.02;;;;;;;0.75;77.81;100972.31;5031673;28;20049;-73
2021/12/23 09:38:56;;;;;;;43.13;25.50;;;;;;;0.79;77.99;100976.34;5032226;28;20037;-73
2021/12/23 09:41:23;;;;;;;46.20;26.23;;;;;;;0.81;77.93;100976.19;5031876;28;20034;-73
2021/12/23 09:43:49;;;;;;;42.80;25.23;;;;;;;0.83;77.61;100967.06;5032417;28;20032;-70
2021/12/23 09:46:17;;;;;;;41.35;25.77;;;;;;;0.84;77.71;100962.56;5030895;28;20038;-71
2021/12/23 09:48:45;;;;;;;45.72;26.38;;;;;;;0.85;78.64;100957.06;5031062;28;20178;-73
2021/12/23 09:51:13;;;;;;;43.20;26.20;;;;;;;0.90;78.53;100948.59;5032269;28;20036;-71
2021/12/23 09:53:43;;;;;;;42.13;25.48;;;;;;;0.93;77.87;100948.28;5032921;28;20111;-73
2021/12/23 09:56:08;;;;;;;45.30;26.25;;;;;;;0.94;78.60;100952.63;5036098;28;20025;-74
2021/12/23 09:58:34;;;;;;;41.40;25.98;;;;;;;0.97;77.68;100952.31;5035807;28;20040;-75
2021/12/23 10:01:00;;;;;;;43.30;26.50;;;;;;;0.94;77.58;100939.31;5033549;28;20424;-72
2021/12/23 10:03:27;;;;;;;42.53;25.92;;;;;;;0.98;78.36;100939.81;5035707;28;20037;-75
2021/12/23 10:05:54;;;;;;;41.80;24.52;;;;;;;1.02;78.53;100930.50;5035764;28;20033;-74
2021/12/23 10:08:20;;;;;;;40.03;25.27;;;;;;;1.08;78.35;100935.19;5035564;28;20033;-71
2021/12/23 10:10:57;;;;;;;43.75;26.13;;;;;;;1.08;77.73;100943.19;5035796;28;20029;-73
2021/12/23 10:33:07;;;;;;;43.42;26.25;;;;;;;1.30;79.13;100900.94;5035034;28;20038;-73
2021/12/23 10:38:30;;;;;;;46.45;25.65;;;;;;;1.36;79.08;100869.13;5035233;28;20150;-73
2021/12/23 10:41:00;;;;;;;42.45;25.80;;;;;;;1.40;79.08;100858.97;5033957;28;20033;-73
2021/12/23 10:43:38;;;;;;;42.25;25.40;;;;;;;1.43;78.64;100853.31;5035068;28;20083;-73
2021/12/23 10:46:11;;;;;;;45.13;25.83;;;;;;;1.49;78.64;100857.97;5035179;28;20099;-75
2021/12/23 10:48:47;;;;;;;44.15;24.85;;;;;;;1.53;78.65;100851.31;5034854;28;20029;-73
2021/12/23 10:51:17;;;;;;;43.95;25.33;;;;;;;1.57;79.14;100849.13;5035111;28;20029;-71
2021/12/23 10:59:09;;;;;;;40.63;24.95;;;;;;;1.68;78.58;100845.34;5034979;28;20157;-73
2021/12/23 11:01:54;;;;;;;43.67;25.70;;;;;;;1.72;78.96;100843.97;5031968;28;20436;-74
2021/12/23 11:04:19;;;;;;;43.47;25.98;;;;;;;1.76;78.17;100835.47;5034369;28;20034;-72
2021/12/23 11:06:47;;;;;;;42.55;24.90;;;;;;;1.79;78.81;100825.47;5034457;28;20034;-74
2021/12/23 11:37:05;;;;;;;41.95;24.73;;;;;;;2.30;78.50;100770.81;5033853;28;20052;-76
2021/12/23 11:39:53;;;;;;;40.33;22.80;;;;;;;2.36;78.23;100763.94;5033539;28;20068;-73
2021/12/23 11:42:26;;;;;;;39.10;23.73;;;;;;;2.40;78.83;100761.75;5032710;28;20377;-74
2021/12/23 11:44:52;;;;;;;41.15;23.38;;;;;;;2.47;78.65;100762.72;5032831;28;20041;-74
2021/12/23 11:47:17;;;;;;;39.88;22.85;;;;;;;2.52;78.56;100751.53;5033460;28;20461;-77
2021/12/23 11:49:45;;;;;;;41.70;23.55;;;;;;;2.55;78.58;100751.16;5032648;28;20030;-76
2021/12/23 11:52:11;;;;;;;40.05;23.05;;;;;;;2.57;77.79;100750.00;5033798;28;20115;-73
2021/12/23 11:54:39;;;;;;;37.70;22.40;;;;;;;2.59;78.16;100745.28;5032405;28;20445;-76
2021/12/23 11:57:09;;;;;;;38.75;22.83;;;;;;;2.61;78.74;100740.63;5033736;28;20120;-75
2021/12/23 11:59:37;;;;;;;39.63;23.33;;;;;;;2.67;78.40;100739.06;5033538;28;20042;-75
2021/12/23 12:02:18;;;;;;;38.88;22.58;;;;;;;2.71;78.42;100735.06;5031209;28;20029;-77
2021/12/23 12:04:44;;;;;;;36.20;22.38;;;;;;;2.76;78.31;100726.50;5033744;28;20033;-76
2021/12/23 12:07:16;;;;;;;35.75;22.58;;;;;;;2.81;77.86;100724.97;5033635;28;20100;-75
2021/12/23 12:10:04;;;;;;;37.90;22.63;;;;;;;2.85;78.53;100730.78;5033027;28;20492;-73
2021/12/23 12:12:31;;;;;;;37.22;23.10;;;;;;;2.87;78.24;100739.47;5033082;28;20108;-73
2021/12/23 12:14:58;;;;;;;35.53;21.70;;;;;;;2.88;78.01;100735.78;5033470;28;20030;-74
2021/12/23 12:17:23;;;;;;;35.13;21.77;;;;;;;2.92;78.30;100729.06;5032676;28;20099;-76